createdAt,value
2022-08-03T00:01:56.605Z,99.90
2022-08-03T00:06:59.174Z,99.90
2022-08-03T00:12:01.702Z,99.90
2022-08-03T00:17:04.285Z,99.90
2022-08-03T00:22:06.791Z,99.90
2022-08-03T00:27:09.378Z,99.90
2022-08-03T00:32:11.964Z,99.90
2022-08-03T00:37:14.735Z,99.90
2022-08-03T00:42:19.041Z,99.90
2022-08-03T00:47:21.614Z,99.90
2022-08-03T00:52:24.124Z,99.90
2022-08-03T00:57:27.129Z,99.90
2022-08-03T01:02:29.739Z,99.90
2022-08-03T01:08:05.755Z,99.90
2022-08-03T01:14:00.979Z,99.90
2022-08-03T01:19:30.111Z,99.90
2022-08-03T01:24:32.561Z,99.90
2022-08-03T01:29:38.048Z,99.90
2022-08-03T01:34:51.987Z,99.90
2022-08-03T01:39:57.945Z,99.90
2022-08-03T01:45:02.020Z,99.90
2022-08-03T01:50:07.309Z,99.90
2022-08-03T01:55:12.373Z,99.90
2022-08-03T02:00:15.536Z,99.90
2022-08-03T02:05:19.895Z,99.90
2022-08-03T02:10:34.790Z,99.90
2022-08-03T02:15:39.368Z,99.90
2022-08-03T02:20:43.757Z,99.90
2022-08-03T02:25:51.046Z,99.90
2022-08-03T02:30:55.930Z,99.90
2022-08-03T02:36:01.228Z,99.90
2022-08-03T02:41:09.122Z,99.90
2022-08-03T02:46:15.102Z,99.90
2022-08-03T02:51:20.611Z,99.90
2022-08-03T02:56:25.456Z,99.90
2022-08-03T03:01:29.253Z,99.90
2022-08-03T03:06:32.460Z,99.90
2022-08-03T03:11:38.462Z,99.90
2022-08-03T03:16:42.929Z,99.90
2022-08-03T03:21:46.471Z,99.90
2022-08-03T03:26:49.657Z,99.90
2022-08-03T03:31:52.416Z,99.90
2022-08-03T03:36:55.044Z,99.90
2022-08-03T03:41:58.144Z,99.90
2022-08-03T03:47:00.738Z,99.90
2022-08-03T03:52:03.341Z,99.90
2022-08-03T03:57:05.859Z,99.90
2022-08-03T04:02:09.961Z,99.90
2022-08-03T04:07:31.043Z,99.90
2022-08-03T04:12:36.109Z,99.90
2022-08-03T04:17:40.478Z,99.90
2022-08-03T04:22:43.148Z,99.90
2022-08-03T04:28:29.684Z,99.90
2022-08-03T04:33:10.842Z,99.90
2022-08-03T04:38:15.683Z,99.90
2022-08-03T04:43:20.871Z,99.90
2022-08-03T04:48:23.526Z,99.90
2022-08-03T04:53:26.081Z,99.90
2022-08-03T04:58:28.583Z,99.90
2022-08-03T05:03:32.002Z,99.90
2022-08-03T05:08:34.549Z,99.90
2022-08-03T05:13:37.104Z,99.90
2022-08-03T05:18:39.999Z,99.90
2022-08-03T05:23:43.532Z,99.90
2022-08-03T05:28:50.763Z,99.90
2022-08-03T05:33:54.671Z,99.90
2022-08-03T05:39:02.228Z,99.90
2022-08-03T05:44:05.438Z,99.90
2022-08-03T05:49:08.104Z,99.90
2022-08-03T05:54:10.806Z,99.90
2022-08-03T05:59:37.043Z,99.90
2022-08-03T06:04:35.997Z,99.90
2022-08-03T06:10:34.410Z,99.90
2022-08-03T06:15:01.226Z,99.90
2022-08-03T06:20:04.139Z,99.90
2022-08-03T06:25:11.290Z,99.90
2022-08-03T06:30:21.066Z,99.90
2022-08-03T06:35:24.085Z,99.90
2022-08-03T06:40:31.448Z,99.90
2022-08-03T06:45:35.389Z,99.90
2022-08-03T06:50:39.456Z,99.10
2022-08-03T06:55:42.490Z,97.80
2022-08-03T07:00:45.166Z,97.00
2022-08-03T07:05:47.870Z,97.30
2022-08-03T07:10:50.784Z,97.90
2022-08-03T07:15:55.571Z,99.20
2022-08-03T07:20:59.097Z,98.50
2022-08-03T07:26:01.649Z,98.90
2022-08-03T07:31:04.376Z,97.50
2022-08-03T07:36:07.031Z,96.60
2022-08-03T07:41:09.622Z,95.20
2022-08-03T07:46:12.343Z,93.70
2022-08-03T07:51:15.001Z,92.20
2022-08-03T07:56:17.661Z,91.70
2022-08-03T08:01:20.863Z,91.00
2022-08-03T08:06:23.540Z,90.40
2022-08-03T08:11:26.387Z,90.10
2022-08-03T08:16:28.895Z,89.70
2022-08-03T08:21:53.019Z,90.10
2022-08-03T08:26:53.903Z,88.50
2022-08-03T08:31:56.524Z,87.50
2022-08-03T08:36:59.618Z,88.40
2022-08-03T08:42:02.169Z,85.70
2022-08-03T08:47:04.943Z,85.20
2022-08-03T08:52:25.477Z,84.60
2022-08-03T08:57:43.246Z,85.90
2022-08-03T09:02:47.137Z,84.50
2022-08-03T09:07:50.364Z,82.00
2022-08-03T09:12:53.363Z,80.90
2022-08-03T09:17:58.393Z,80.50
2022-08-03T09:23:44.685Z,78.60
2022-08-03T09:29:00.465Z,78.20
2022-08-03T09:34:01.292Z,77.20
2022-08-03T09:39:11.398Z,76.50
2022-08-03T09:44:16.189Z,74.90
2022-08-03T09:49:28.084Z,74.50
2022-08-03T09:54:31.955Z,75.30
2022-08-03T09:59:35.406Z,73.50
2022-08-03T10:04:48.440Z,75.50
2022-08-03T10:10:28.959Z,73.40
2022-08-03T10:16:24.017Z,72.40
2022-08-03T10:20:51.719Z,70.30
2022-08-03T10:26:01.967Z,68.80
2022-08-03T10:31:07.812Z,67.40
2022-08-03T10:36:12.662Z,67.40
2022-08-03T10:41:16.933Z,64.80
2022-08-03T10:46:21.426Z,62.20
2022-08-03T10:51:24.775Z,62.20
2022-08-03T10:56:51.579Z,59.30
2022-08-03T11:01:59.964Z,56.00
2022-08-03T11:07:23.666Z,56.30
2022-08-03T11:12:32.242Z,56.20
2022-08-03T11:17:46.832Z,53.60
2022-08-03T11:23:01.167Z,54.20
2022-08-03T11:28:26.842Z,51.20
2022-08-03T11:33:30.653Z,52.60
2022-08-03T11:38:33.180Z,50.70
2022-08-03T11:43:37.277Z,50.40
2022-08-03T11:48:45.702Z,49.70
2022-08-03T11:53:59.028Z,47.40
2022-08-03T11:59:20.722Z,45.70
2022-08-03T12:04:24.075Z,45.10
2022-08-03T12:09:26.669Z,43.50
2022-08-03T12:14:50.041Z,42.50
2022-08-03T12:19:54.050Z,41.80
2022-08-03T12:24:56.745Z,41.40
2022-08-03T12:30:01.607Z,41.00
2022-08-03T12:35:06.064Z,40.20
2022-08-03T12:40:13.272Z,39.40
2022-08-03T12:45:22.968Z,38.50
2022-08-03T12:50:36.560Z,36.70
2022-08-03T12:56:05.190Z,35.70
2022-08-03T13:01:09.728Z,33.70
2022-08-03T13:06:16.385Z,34.70
2022-08-03T13:11:50.511Z,34.70
2022-08-03T13:16:46.443Z,34.70
2022-08-03T13:21:53.524Z,33.00
2022-08-03T13:28:02.422Z,31.00
2022-08-03T13:32:30.335Z,30.80
2022-08-03T13:37:33.447Z,29.70
2022-08-03T13:42:36.901Z,29.10
2022-08-03T13:47:39.664Z,29.20
2022-08-03T13:52:42.617Z,27.90
2022-08-03T13:58:05.277Z,27.50
2022-08-03T14:03:15.347Z,27.40
2022-08-03T14:08:18.345Z,26.70
2022-08-03T14:13:20.826Z,26.10
2022-08-03T14:18:28.825Z,26.70
2022-08-03T14:23:38.188Z,27.20
2022-08-03T14:28:41.350Z,27.00
2022-08-03T14:33:43.930Z,27.30
2022-08-03T14:38:46.588Z,26.70
2022-08-03T14:44:01.522Z,26.20
2022-08-03T14:50:36.876Z,27.50
2022-08-03T14:54:31.042Z,26.60
2022-08-03T14:59:56.333Z,26.20
2022-08-03T15:04:56.636Z,26.00
2022-08-03T15:09:59.718Z,25.80
2022-08-03T15:15:05.426Z,26.30
2022-08-03T15:20:26.561Z,26.30
2022-08-03T15:26:29.292Z,26.10
2022-08-03T15:30:54.510Z,25.00
2022-08-03T15:35:57.258Z,25.60
2022-08-03T15:41:00.257Z,25.10
2022-08-03T15:46:28.235Z,25.80
2022-08-03T15:51:25.809Z,26.10
2022-08-03T15:56:28.335Z,25.40
2022-08-03T16:01:32.106Z,26.30
2022-08-03T16:06:36.320Z,26.50
2022-08-03T16:11:39.199Z,27.40
2022-08-03T16:16:41.738Z,26.20
2022-08-03T16:21:48.809Z,27.00
2022-08-03T16:26:53.172Z,26.40
2022-08-03T16:31:55.691Z,26.50
2022-08-03T16:36:58.343Z,27.60
2022-08-03T16:42:01.901Z,29.10
2022-08-03T16:47:04.641Z,32.20
2022-08-03T16:52:07.334Z,35.20
2022-08-03T16:57:09.937Z,35.20
2022-08-03T17:02:22.246Z,33.50
2022-08-03T17:07:29.646Z,34.20
2022-08-03T17:12:32.944Z,32.90
2022-08-03T17:17:37.562Z,32.20
2022-08-03T17:23:03.237Z,31.50
2022-08-03T17:28:50.816Z,32.40
2022-08-03T17:33:33.925Z,35.70
2022-08-03T17:38:39.556Z,38.10
2022-08-03T17:44:15.566Z,40.20
2022-08-03T17:49:24.724Z,43.50
2022-08-03T17:55:56.316Z,44.50
2022-08-03T18:00:43.405Z,45.30
2022-08-03T18:06:10.724Z,45.50
2022-08-03T18:11:21.787Z,46.40
2022-08-03T18:16:33.429Z,46.10
2022-08-03T18:22:02.966Z,47.10
2022-08-03T18:27:03.144Z,48.40
2022-08-03T18:32:13.291Z,51.60
2022-08-03T18:37:20.533Z,53.70
2022-08-03T18:42:26.768Z,52.00
2022-08-03T18:47:50.513Z,51.70
2022-08-03T18:53:16.689Z,52.70
2022-08-03T18:58:33.663Z,54.20
2022-08-03T19:03:43.174Z,54.90
2022-08-03T19:08:50.283Z,55.20
2022-08-03T19:13:56.779Z,55.70
2022-08-03T19:19:01.314Z,57.50
2022-08-03T19:29:58.797Z,59.10
2022-08-03T19:34:54.219Z,60.90
2022-08-03T19:39:58.346Z,63.20
2022-08-03T19:45:14.365Z,64.80
2022-08-03T19:50:20.325Z,67.20
2022-08-03T19:55:26.829Z,67.80
2022-08-03T20:00:38.269Z,68.30
2022-08-03T20:05:51.850Z,71.60
2022-08-03T20:10:55.225Z,72.60
2022-08-03T20:15:57.731Z,73.10
2022-08-03T20:21:14.795Z,74.80
2022-08-03T20:26:20.378Z,74.00
2022-08-03T20:31:32.632Z,75.80
2022-08-03T20:36:38.899Z,78.20
2022-08-03T20:41:41.804Z,78.10
2022-08-03T20:46:53.189Z,81.00
2022-08-03T20:52:06.999Z,82.40
2022-08-03T20:57:21.493Z,83.70
2022-08-03T21:02:29.531Z,84.80
2022-08-03T21:07:45.489Z,86.70
2022-08-03T21:13:09.087Z,58.40
2022-08-03T21:13:30.093Z,87.80
2022-08-03T21:18:38.062Z,88.20
2022-08-03T21:23:48.719Z,89.40
2022-08-03T21:28:55.528Z,90.90
2022-08-03T21:34:01.530Z,90.80
2022-08-03T21:39:08.516Z,91.10
2022-08-03T21:44:11.188Z,91.20
2022-08-03T21:50:04.884Z,91.90
2022-08-03T21:54:40.935Z,92.00
2022-08-03T21:59:52.089Z,91.70
2022-08-03T22:04:57.148Z,91.30
2022-08-03T22:10:01.861Z,90.00
2022-08-03T22:15:08.174Z,88.30
2022-08-03T22:20:14.468Z,87.60
2022-08-03T22:25:16.984Z,87.50
2022-08-03T22:30:20.177Z,87.20
2022-08-03T22:35:25.239Z,87.10
2022-08-03T22:40:28.483Z,86.60
2022-08-03T22:45:45.836Z,86.70
2022-08-03T22:50:55.585Z,85.30
2022-08-03T22:55:58.677Z,86.20
2022-08-03T23:01:11.596Z,86.20
2022-08-03T23:06:19.073Z,86.60
2022-08-03T23:11:23.966Z,85.80
2022-08-03T23:16:28.874Z,85.50
2022-08-03T23:22:00.385Z,88.50
2022-08-03T23:26:56.558Z,86.10
2022-08-03T23:32:01.126Z,87.00
2022-08-03T23:37:05.884Z,88.50
2022-08-03T23:42:09.357Z,88.50
2022-08-03T23:47:13.599Z,89.60
2022-08-03T23:52:33.590Z,89.20
2022-08-03T23:57:51.371Z,90.10
